Time;durP1;ratioP1;P1;durP2;ratioP2;P2;SDS_P1;SDS_P2;PMS_P1;PMS_P2;Temp;Humidity;BMP_temperature;BMP_pressure;BME280_temperature;BME280_humidity;BME280_pressure;Samples;Min_cycle;Max_cycle;Signal;HPM_P1;HPM_P2
2021/06/09 00:01:22;;;;;;;12.38;11.07;;;19.60;88.40;;;;;;5066397;28;27333;-69
2021/06/09 00:04:07;;;;;;;11.57;10.43;;;19.60;88.60;;;;;;5084146;28;27407;-69
2021/06/09 00:06:51;;;;;;;13.23;11.40;;;19.50;88.40;;;;;;5083956;28;27467;-69
2021/06/09 00:09:36;;;;;;;12.13;10.93;;;19.50;88.50;;;;;;5084164;28;27329;-68
2021/06/09 00:12:20;;;;;;;15.68;10.38;;;19.50;88.60;;;;;;5083994;28;27332;-69
2021/06/09 00:15:08;;;;;;;12.98;11.68;;;19.50;88.70;;;;;;5083716;28;27397;-69
2021/06/09 00:17:52;;;;;;;11.93;10.82;;;19.50;88.40;;;;;;5083078;28;27535;-69
2021/06/09 00:20:37;;;;;;;11.48;10.32;;;19.40;88.40;;;;;;5084294;28;27357;-68
2021/06/09 00:23:26;;;;;;;12.32;10.40;;;19.40;88.20;;;;;;5084210;28;27333;-69
2021/06/09 00:26:10;;;;;;;11.35;10.15;;;19.40;87.80;;;;;;5065280;28;27502;-68
2021/06/09 00:28:55;;;;;;;12.15;10.90;;;19.30;87.60;;;;;;5083990;28;27457;-68
2021/06/09 00:31:42;;;;;;;10.88;9.77;;;19.40;88.00;;;;;;5083229;28;27605;-69
2021/06/09 00:34:27;;;;;;;12.40;11.15;;;19.30;87.90;;;;;;5065549;28;27483;-68
2021/06/09 00:37:11;;;;;;;11.70;10.50;;;19.30;87.70;;;;;;5083814;28;27519;-68
2021/06/09 00:39:55;;;;;;;11.68;10.27;;;19.20;88.10;;;;;;5079678;28;27477;-68
2021/06/09 00:42:40;;;;;;;13.20;10.27;;;19.20;88.00;;;;;;5068708;28;27502;-70
2021/06/09 00:45:25;;;;;;;10.43;9.32;;;19.20;88.10;;;;;;5082887;28;27399;-75
2021/06/09 00:48:10;;;;;;;11.15;9.55;;;19.20;88.30;;;;;;5083767;28;27372;-69
2021/06/09 00:50:59;;;;;;;13.70;9.70;;;19.10;88.20;;;;;;5065409;28;27467;-69
2021/06/09 00:53:50;;;;;;;10.90;9.80;;;19.10;88.20;;;;;;5083432;28;27333;-69
2021/06/09 00:56:36;;;;;;;10.80;9.70;;;19.10;88.00;;;;;;5082989;28;27447;-70
2021/06/09 00:59:20;;;;;;;10.27;9.25;;;19.10;88.10;;;;;;5097376;27;27474;-70
2021/06/09 01:02:05;;;;;;;9.30;8.25;;;19.10;88.00;;;;;;5079348;28;27427;-69
2021/06/09 01:04:49;;;;;;;9.10;8.23;;;19.00;88.10;;;;;;5082643;28;27435;-69
2021/06/09 01:07:40;;;;;;;10.73;8.70;;;19.00;88.10;;;;;;5083503;28;27408;-69
2021/06/09 01:10:25;;;;;;;10.75;8.80;;;18.90;87.90;;;;;;5083155;28;27368;-69
2021/06/09 01:13:09;;;;;;;10.30;9.13;;;18.90;87.90;;;;;;5085212;28;27395;-69
2021/06/09 01:15:54;;;;;;;10.35;9.23;;;18.90;87.90;;;;;;5085672;28;27360;-68
2021/06/09 01:18:39;;;;;;;11.30;8.68;;;18.90;88.00;;;;;;5100326;27;27339;-69
2021/06/09 01:21:30;;;;;;;10.40;9.40;;;18.80;88.20;;;;;;5086291;28;27607;-68
2021/06/09 01:24:15;;;;;;;10.57;9.20;;;18.80;88.20;;;;;;5082450;28;27494;-68
2021/06/09 01:27:00;;;;;;;10.75;9.13;;;18.80;88.70;;;;;;5071833;28;27423;-68
2021/06/09 01:29:44;;;;;;;11.73;9.30;;;18.80;88.70;;;;;;5082108;28;27470;-77
2021/06/09 01:32:29;;;;;;;9.50;8.60;;;18.70;88.80;;;;;;5082685;28;27482;-69
2021/06/09 01:35:13;;;;;;;9.15;8.18;;;18.70;88.60;;;;;;5085734;28;27472;-69
2021/06/09 01:37:58;;;;;;;8.65;7.70;;;18.70;88.50;;;;;;5086733;28;27416;-69
2021/06/09 01:40:43;;;;;;;8.15;7.35;;;18.70;88.50;;;;;;5086569;28;27422;-70
2021/06/09 01:43:28;;;;;;;7.90;6.97;;;18.60;88.10;;;;;;5086513;28;27518;-69
2021/06/09 01:46:14;;;;;;;8.63;7.72;;;18.60;88.30;;;;;;5085424;28;27391;-69
2021/06/09 01:48:59;;;;;;;10.32;7.30;;;18.60;88.50;;;;;;5085296;28;27560;-69
2021/06/09 01:51:43;;;;;;;10.52;7.45;;;18.60;88.30;;;;;;5086391;28;27454;-69
2021/06/09 01:54:28;;;;;;;8.32;7.05;;;18.60;88.30;;;;;;5086303;28;27396;-70
2021/06/09 01:57:14;;;;;;;7.75;7.00;;;18.50;88.30;;;;;;5086180;28;27517;-69
2021/06/09 01:59:59;;;;;;;9.70;7.43;;;18.50;88.30;;;;;;5086065;28;27474;-69
2021/06/09 02:02:45;;;;;;;8.20;7.40;;;18.50;88.70;;;;;;5085428;28;27494;-69
2021/06/09 02:05:31;;;;;;;7.43;6.72;;;18.50;88.70;;;;;;5085223;28;28042;-69
2021/06/09 02:08:16;;;;;;;8.98;7.93;;;18.50;88.90;;;;;;5085032;28;27462;-74
2021/06/09 02:11:01;;;;;;;9.00;8.10;;;18.50;88.90;;;;;;5086066;28;27506;-70
2021/06/09 02:13:46;;;;;;;8.13;7.32;;;18.40;88.80;;;;;;5096220;28;27432;-69
2021/06/09 02:16:35;;;;;;;10.70;7.60;;;18.40;88.70;;;;;;5084501;28;27913;-69
2021/06/09 02:19:22;;;;;;;8.80;7.80;;;18.40;88.90;;;;;;5085101;28;27328;-69
2021/06/09 02:22:07;;;;;;;9.10;8.20;;;18.40;89.20;;;;;;5081662;28;27386;-68
2021/06/09 02:24:52;;;;;;;9.52;8.55;;;18.40;89.40;;;;;;5084812;28;27371;-69
2021/06/09 02:27:37;;;;;;;9.13;8.00;;;18.30;89.00;;;;;;5085552;28;27333;-70
2021/06/09 02:30:21;;;;;;;10.55;9.15;;;18.30;89.60;;;;;;5084923;28;27325;-69
2021/06/09 02:33:06;;;;;;;9.65;8.60;;;18.30;89.50;;;;;;5070374;28;27332;-69
2021/06/09 02:35:52;;;;;;;10.50;8.93;;;18.30;89.30;;;;;;5085416;28;27342;-68
2021/06/09 02:38:40;;;;;;;9.27;8.25;;;18.30;89.70;;;;;;5081418;28;27378;-69
2021/06/09 02:41:25;;;;;;;10.13;8.70;;;18.30;89.60;;;;;;5085514;28;27405;-69
2021/06/09 02:44:09;;;;;;;9.38;8.38;;;18.30;89.70;;;;;;5085048;28;27030;-69
2021/06/09 02:46:59;;;;;;;8.93;8.02;;;18.30;89.90;;;;;;5085396;28;27361;-68
2021/06/09 02:49:43;;;;;;;8.70;7.80;;;18.30;89.80;;;;;;5084715;28;27325;-69
2021/06/09 02:52:31;;;;;;;11.65;8.80;;;18.20;89.90;;;;;;5081446;28;27403;-69
2021/06/09 02:56:00;;;;;;;9.52;8.13;;;18.20;90.00;;;;;;5066616;28;27424;-70
2021/06/09 02:59:23;;;;;;;8.98;8.00;;;18.20;90.00;;;;;;5085034;28;26931;-69
2021/06/09 03:02:18;;;;;;;10.05;8.48;;;18.20;90.00;;;;;;5083891;28;27924;-69
2021/06/09 03:05:15;;;;;;;8.13;6.93;;;18.20;90.10;;;;;;5081040;28;27467;-69
2021/06/09 03:08:02;;;;;;;7.78;7.07;;;18.20;90.20;;;;;;5084299;28;27514;-69
2021/06/09 03:10:55;;;;;;;8.88;7.90;;;18.20;90.30;;;;;;5067020;28;27683;-70
2021/06/09 03:17:14;;;;;;;8.57;7.13;;;18.10;90.30;;;;;;5071628;28;27356;-69
2021/06/09 03:20:17;;;;;;;10.18;7.47;;;18.10;90.30;;;;;;5084255;28;27439;-69
2021/06/09 03:23:26;;;;;;;7.53;6.75;;;18.10;90.30;;;;;;5085027;28;27340;-70
2021/06/09 03:26:17;;;;;;;8.68;7.10;;;18.10;90.30;;;;;;5071739;28;28056;-70
2021/06/09 03:29:20;;;;;;;7.55;6.85;;;18.10;90.30;;;;;;5084882;28;27406;-68
2021/06/09 03:32:07;;;;;;;8.95;7.57;;;18.10;90.40;;;;;;5068735;28;27329;-68
2021/06/09 03:35:18;;;;;;;8.75;7.85;;;18.10;90.30;;;;;;5084583;28;27315;-68
2021/06/09 03:38:05;;;;;;;8.85;7.72;;;18.10;90.40;;;;;;5083265;28;27388;-69
2021/06/09 03:40:52;;;;;;;9.30;7.75;;;18.10;90.40;;;;;;5083525;28;27388;-68
2021/06/09 03:43:38;;;;;;;7.85;7.05;;;18.10;90.30;;;;;;5083830;28;27415;-69
2021/06/09 03:46:23;;;;;;;9.00;8.15;;;18.00;90.40;;;;;;5066064;28;27502;-69
2021/06/09 03:49:13;;;;;;;11.77;9.18;;;18.10;90.20;;;;;;5098036;27;27492;-69
2021/06/09 03:51:58;;;;;;;16.75;13.68;;;18.00;90.40;;;;;;5080474;28;27468;-69
2021/06/09 03:54:46;;;;;;;17.92;13.93;;;18.10;90.40;;;;;;5051814;28;27316;-69
2021/06/09 03:57:31;;;;;;;16.13;12.95;;;18.00;90.50;;;;;;5084441;28;27271;-69
2021/06/09 04:00:17;;;;;;;14.35;11.43;;;18.00;90.50;;;;;;5083103;28;27399;-69
2021/06/09 04:03:02;;;;;;;14.05;10.45;;;18.00;90.50;;;;;;5084330;28;27411;-69
2021/06/09 04:05:47;;;;;;;13.07;11.07;;;18.00;90.60;;;;;;5082812;28;27419;-69
2021/06/09 04:08:33;;;;;;;14.57;11.32;;;18.00;90.60;;;;;;5065967;28;27337;-69
2021/06/09 04:11:18;;;;;;;12.20;10.30;;;18.00;90.60;;;;;;5097712;27;27344;-69
2021/06/09 04:14:03;;;;;;;11.57;10.25;;;18.10;90.80;;;;;;5083884;28;27450;-70
2021/06/09 04:16:47;;;;;;;12.43;9.98;;;18.00;90.90;;;;;;5097794;27;27340;-69
2021/06/09 04:19:33;;;;;;;10.38;9.30;;;18.00;90.80;;;;;;5080091;28;27370;-69
2021/06/09 04:22:18;;;;;;;10.63;9.52;;;18.00;90.80;;;;;;5098331;27;27618;-76
2021/06/09 04:25:03;;;;;;;9.68;8.27;;;18.00;90.70;;;;;;5082940;28;27368;-69
2021/06/09 04:27:48;;;;;;;9.48;8.48;;;18.00;90.70;;;;;;5083996;28;27344;-68
2021/06/09 04:30:33;;;;;;;9.32;8.43;;;18.10;90.70;;;;;;5083209;28;27329;-68
2021/06/09 04:33:18;;;;;;;9.88;8.88;;;18.10;90.70;;;;;;5082285;28;27396;-69
2021/06/09 04:36:03;;;;;;;11.00;9.30;;;18.10;90.80;;;;;;5068707;28;27404;-69
2021/06/09 04:38:47;;;;;;;9.75;8.75;;;18.10;90.80;;;;;;5097157;27;27375;-68
2021/06/09 04:41:32;;;;;;;9.88;8.77;;;18.10;90.70;;;;;;5084083;28;27332;-68
2021/06/09 04:44:17;;;;;;;14.82;9.63;;;18.10;90.80;;;;;;5083438;28;27956;-68
2021/06/09 04:47:02;;;;;;;11.38;8.30;;;18.10;90.80;;;;;;5083775;28;27450;-68
2021/06/09 04:49:47;;;;;;;9.55;7.90;;;18.10;90.70;;;;;;5089806;28;27341;-68
2021/06/09 04:52:32;;;;;;;9.55;7.88;;;18.10;90.80;;;;;;5090338;28;27467;-68
2021/06/09 04:55:17;;;;;;;8.98;7.40;;;18.10;90.70;;;;;;5089549;28;27864;-69
2021/06/09 04:58:02;;;;;;;9.73;8.23;;;18.10;90.70;;;;;;5089627;28;27434;-69
2021/06/09 05:00:48;;;;;;;11.77;10.07;;;18.10;90.90;;;;;;5089721;28;27391;-68
2021/06/09 05:03:33;;;;;;;13.35;11.00;;;18.10;90.80;;;;;;5090083;28;27341;-69
2021/06/09 05:06:17;;;;;;;10.95;9.85;;;18.10;90.70;;;;;;5089158;28;27926;-69
2021/06/09 05:09:03;;;;;;;13.25;9.93;;;18.10;90.70;;;;;;5075194;28;27400;-68
2021/06/09 05:11:52;;;;;;;12.43;10.27;;;18.10;90.70;;;;;;5089406;28;27490;-69
2021/06/09 05:14:49;;;;;;;12.32;9.43;;;18.10;90.70;;;;;;5071935;28;27450;-69
2021/06/09 05:17:47;;;;;;;10.88;9.38;;;18.10;90.80;;;;;;5104680;27;27379;-69
2021/06/09 05:20:34;;;;;;;11.43;10.23;;;18.10;90.80;;;;;;5071796;28;27417;-70
2021/06/09 05:23:38;;;;;;;11.90;8.82;;;18.10;90.90;;;;;;5089482;28;27423;-69
2021/06/09 05:26:23;;;;;;;10.15;9.15;;;18.10;91.00;;;;;;5089496;28;27569;-70
2021/06/09 05:29:08;;;;;;;12.23;10.25;;;18.10;90.90;;;;;;5074949;28;27408;-69
2021/06/09 05:31:53;;;;;;;15.68;10.82;;;18.10;90.60;;;;;;5088957;28;27530;-70
2021/06/09 05:34:39;;;;;;;12.82;11.13;;;18.20;90.90;;;;;;5089397;28;27356;-70
2021/06/09 05:37:24;;;;;;;14.27;10.48;;;18.10;90.80;;;;;;5104550;28;27509;-70
2021/06/09 05:40:10;;;;;;;12.32;10.10;;;18.10;90.60;;;;;;5074117;28;27797;-75
2021/06/09 05:42:55;;;;;;;12.18;10.98;;;18.10;90.00;;;;;;5103262;27;27411;-67
2021/06/09 05:45:40;;;;;;;11.48;9.82;;;18.20;89.60;;;;;;5071629;28;27499;-69
2021/06/09 05:48:24;;;;;;;17.30;10.52;;;18.20;89.70;;;;;;5103360;27;27431;-67
2021/06/09 05:51:11;;;;;;;11.82;9.20;;;18.20;90.00;;;;;;5088683;28;27945;-70
2021/06/09 05:53:55;;;;;;;10.77;9.45;;;18.20;90.10;;;;;;5088704;28;27420;-70
2021/06/09 05:56:40;;;;;;;10.48;9.38;;;18.20;90.10;;;;;;5085270;28;27450;-70
2021/06/09 05:59:25;;;;;;;11.23;10.13;;;18.20;90.10;;;;;;5100232;27;27420;-70
2021/06/09 06:02:10;;;;;;;15.65;9.88;;;18.20;90.20;;;;;;5086195;28;27893;-70
2021/06/09 06:04:55;;;;;;;11.75;10.02;;;18.30;90.10;;;;;;5086472;28;27444;-70
2021/06/09 06:07:40;;;;;;;11.23;10.02;;;18.30;90.40;;;;;;5086266;28;27502;-70
2021/06/09 06:10:25;;;;;;;12.95;9.05;;;18.30;90.40;;;;;;5081899;28;27480;-70
2021/06/09 06:13:09;;;;;;;10.30;9.30;;;18.30;90.40;;;;;;5085055;28;27457;-69
2021/06/09 06:15:54;;;;;;;11.50;9.20;;;18.40;90.70;;;;;;5099419;27;27495;-70
2021/06/09 06:18:40;;;;;;;13.45;11.02;;;18.40;90.90;;;;;;5071790;28;27454;-70
2021/06/09 06:21:25;;;;;;;11.57;10.38;;;18.40;90.80;;;;;;5068142;28;27415;-70
2021/06/09 06:24:10;;;;;;;11.68;10.45;;;18.50;90.80;;;;;;5086082;28;27980;-69
2021/06/09 06:26:55;;;;;;;11.95;10.07;;;18.60;91.20;;;;;;5086560;28;27474;-70
2021/06/09 06:29:41;;;;;;;13.50;10.48;;;18.60;91.50;;;;;;5085506;28;27436;-70
2021/06/09 06:32:25;;;;;;;12.02;10.43;;;18.70;91.50;;;;;;5085467;28;27408;-70
2021/06/09 06:35:14;;;;;;;12.55;10.73;;;18.80;91.20;;;;;;5086347;28;27478;-69
2021/06/09 06:37:59;;;;;;;11.60;10.45;;;18.90;91.50;;;;;;5100143;27;27334;-69
2021/06/09 06:40:44;;;;;;;12.38;11.07;;;19.00;92.30;;;;;;5082443;28;27001;-69
2021/06/09 06:43:29;;;;;;;11.95;10.50;;;19.00;92.40;;;;;;5086053;28;27386;-70
2021/06/09 06:46:15;;;;;;;11.27;10.18;;;19.20;92.40;;;;;;5067961;28;27378;-69
2021/06/09 06:49:00;;;;;;;12.93;11.32;;;19.30;92.70;;;;;;5085663;28;27386;-70
2021/06/09 06:51:51;;;;;;;10.88;9.88;;;19.40;92.90;;;;;;5085148;28;27399;-69
2021/06/09 06:54:35;;;;;;;13.20;11.82;;;19.50;93.00;;;;;;5067710;28;27483;-77
2021/06/09 06:57:20;;;;;;;13.20;11.88;;;19.50;93.00;;;;;;5070690;28;27521;-70
2021/06/09 07:00:10;;;;;;;13.63;11.68;;;19.60;93.10;;;;;;5085799;28;27431;-70
2021/06/09 07:02:56;;;;;;;12.82;11.52;;;19.70;93.20;;;;;;5085282;28;27414;-70
2021/06/09 07:05:41;;;;;;;12.38;10.68;;;19.80;93.40;;;;;;5082038;28;27370;-70
2021/06/09 07:08:26;;;;;;;12.20;10.93;;;20.00;93.50;;;;;;5085136;28;27976;-70
2021/06/09 07:11:11;;;;;;;13.40;12.02;;;20.20;93.60;;;;;;5070283;28;27451;-72
2021/06/09 07:13:57;;;;;;;16.02;12.20;;;20.40;93.30;;;;;;5084990;28;27473;-70
2021/06/09 07:16:43;;;;;;;13.65;12.25;;;20.70;93.00;;;;;;5083981;28;27332;-72
2021/06/09 07:19:27;;;;;;;12.80;11.18;;;20.90;92.80;;;;;;5067301;28;27384;-70
2021/06/09 07:22:13;;;;;;;13.00;11.60;;;21.10;92.50;;;;;;5067466;28;27372;-70
2021/06/09 07:24:58;;;;;;;13.98;11.27;;;21.20;92.50;;;;;;5084603;28;27329;-70
2021/06/09 07:27:45;;;;;;;12.02;10.82;;;21.50;92.30;;;;;;5098951;27;27328;-70
2021/06/09 07:30:37;;;;;;;11.80;10.60;;;21.60;92.00;;;;;;5084597;28;27625;-70
2021/06/09 07:33:22;;;;;;;17.77;12.43;;;21.80;91.70;;;;;;5081135;28;27318;-70
2021/06/09 07:36:08;;;;;;;12.75;11.48;;;22.00;91.50;;;;;;5084945;28;27358;-68
2021/06/09 07:38:58;;;;;;;12.52;11.25;;;22.20;91.40;;;;;;5067265;28;27406;-78
2021/06/09 07:41:42;;;;;;;14.10;12.15;;;22.40;91.50;;;;;;5067252;28;27951;-68
2021/06/09 07:44:42;;;;;;;11.82;10.63;;;22.60;91.10;;;;;;5098737;27;27427;-68
2021/06/09 07:47:27;;;;;;;11.98;10.57;;;22.80;91.30;;;;;;5084540;28;27418;-69
2021/06/09 07:50:13;;;;;;;13.68;10.68;;;22.90;91.00;;;;;;5084471;28;27400;-68
2021/06/09 07:53:07;;;;;;;10.90;9.90;;;23.10;91.30;;;;;;5084935;28;27857;-69
2021/06/09 07:55:52;;;;;;;12.52;11.23;;;23.30;91.20;;;;;;5097854;27;27393;-68
2021/06/09 07:58:36;;;;;;;11.73;10.65;;;23.50;90.90;;;;;;5084826;28;27370;-69
2021/06/09 08:01:21;;;;;;;16.85;11.07;;;23.70;90.90;;;;;;5098455;27;27521;-69
2021/06/09 08:04:06;;;;;;;12.25;11.00;;;23.90;90.30;;;;;;5081032;28;27399;-69
2021/06/09 08:06:51;;;;;;;13.20;11.02;;;24.10;90.50;;;;;;5080701;28;27377;-68
2021/06/09 08:09:36;;;;;;;12.20;11.02;;;24.30;90.20;;;;;;5084503;28;27575;-69
2021/06/09 08:12:21;;;;;;;11.15;10.05;;;24.40;88.50;;;;;;5084891;28;27380;-69
2021/06/09 08:15:07;;;;;;;12.30;11.10;;;24.60;88.70;;;;;;5083633;28;27332;-69
2021/06/09 08:17:55;;;;;;;12.45;11.00;;;24.80;89.10;;;;;;5084120;28;27383;-69
2021/06/09 08:21:09;;;;;;;14.68;11.95;;;24.90;88.10;;;;;;5084123;28;27478;-69
2021/06/09 08:23:54;;;;;;;11.45;10.10;;;24.90;87.60;;;;;;5084114;28;27400;-69
2021/06/09 08:26:38;;;;;;;11.60;10.43;;;25.10;88.80;;;;;;5083958;28;27522;-70
2021/06/09 08:29:23;;;;;;;12.88;10.52;;;25.30;88.50;;;;;;5098600;27;27459;-72
2021/06/09 08:32:08;;;;;;;11.63;10.45;;;25.50;89.20;;;;;;5080403;28;27313;-72
2021/06/09 08:34:52;;;;;;;14.73;11.93;;;25.50;87.10;;;;;;5083495;28;26911;-71
2021/06/09 08:37:37;;;;;;;11.18;10.07;;;25.40;86.70;;;;;;5083812;28;27430;-71
2021/06/09 08:40:22;;;;;;;11.90;10.70;;;25.30;86.40;;;;;;5084370;28;27379;-72
2021/06/09 08:43:06;;;;;;;12.95;11.65;;;25.10;88.50;;;;;;5084234;28;27336;-71
2021/06/09 08:45:51;;;;;;;12.73;10.75;;;25.00;88.10;;;;;;5084181;28;27328;-71
2021/06/09 08:48:38;;;;;;;13.23;11.93;;;24.80;89.50;;;;;;5083558;28;28028;-72
2021/06/09 08:51:23;;;;;;;13.35;11.93;;;24.80;90.20;;;;;;5069401;28;27435;-71
2021/06/09 08:54:08;;;;;;;13.90;12.57;;;24.80;90.90;;;;;;5098102;27;27400;-72
2021/06/09 08:56:53;;;;;;;13.02;11.77;;;24.90;90.10;;;;;;5068908;28;26944;-72
2021/06/09 08:59:38;;;;;;;12.48;11.18;;;25.00;90.30;;;;;;5083346;28;27904;-73
2021/06/09 09:02:23;;;;;;;14.20;12.90;;;25.30;90.90;;;;;;5098037;27;27402;-73
2021/06/09 09:05:09;;;;;;;13.98;12.38;;;25.60;90.60;;;;;;5083562;28;27367;-72
2021/06/09 09:07:57;;;;;;;15.07;13.57;;;25.60;89.40;;;;;;5084166;28;27411;-76
2021/06/09 09:10:41;;;;;;;13.57;12.15;;;25.70;88.40;;;;;;5083771;28;27900;-73
2021/06/09 09:13:26;;;;;;;14.65;13.23;;;25.60;87.80;;;;;;5097811;27;27590;-73
2021/06/09 09:16:11;;;;;;;12.63;11.43;;;25.50;86.00;;;;;;5082878;28;27419;-73
2021/06/09 09:19:04;;;;;;;14.13;12.55;;;25.40;85.90;;;;;;5083983;28;27455;-73
2021/06/09 09:21:49;;;;;;;13.40;12.20;;;25.40;87.90;;;;;;5083910;28;28102;-73
2021/06/09 09:24:37;;;;;;;15.27;11.70;;;25.70;88.80;;;;;;5083600;28;27399;-76
2021/06/09 09:27:29;;;;;;;11.95;10.68;;;25.80;88.90;;;;;;5083229;28;27509;-72
2021/06/09 09:30:14;;;;;;;12.52;11.05;;;26.00;90.00;;;;;;5082441;28;27501;-72
2021/06/09 09:33:09;;;;;;;13.18;11.15;;;26.20;90.00;;;;;;5082221;28;27488;-72
2021/06/09 09:35:54;;;;;;;12.20;10.93;;;26.50;90.00;;;;;;5086035;28;27505;-72
2021/06/09 09:38:38;;;;;;;14.05;12.70;;;26.80;90.00;;;;;;5069062;28;27411;-72
2021/06/09 09:41:33;;;;;;;12.73;10.63;;;27.00;90.10;;;;;;5087153;28;27577;-72
2021/06/09 09:44:20;;;;;;;12.27;11.10;;;27.30;90.70;;;;;;5086143;28;27328;-72
2021/06/09 09:47:05;;;;;;;15.40;11.65;;;27.60;90.00;;;;;;5072495;28;27507;-72
2021/06/09 09:49:50;;;;;;;14.40;11.80;;;27.70;85.30;;;;;;5100538;27;27445;-72
2021/06/09 09:52:48;;;;;;;13.00;11.80;;;27.90;84.30;;;;;;5072189;28;27479;-73
2021/06/09 09:55:33;;;;;;;12.60;11.30;;;28.10;83.40;;;;;;5085791;28;27419;-72
2021/06/09 09:58:17;;;;;;;11.05;9.95;;;28.10;82.10;;;;;;5082710;28;27451;-73
2021/06/09 10:01:13;;;;;;;12.50;11.32;;;28.20;83.30;;;;;;5086418;28;27594;-72
2021/06/09 10:03:59;;;;;;;15.65;10.43;;;28.10;83.30;;;;;;5085891;28;27487;-73
2021/06/09 10:06:45;;;;;;;11.52;10.50;;;28.20;84.90;;;;;;5086790;28;28032;-72
2021/06/09 10:09:39;;;;;;;12.05;10.95;;;28.40;85.70;;;;;;5086550;28;27356;-73
2021/06/09 10:12:24;;;;;;;11.75;10.02;;;28.40;86.90;;;;;;5086497;28;27402;-73
2021/06/09 10:15:09;;;;;;;11.60;10.45;;;28.40;84.60;;;;;;5085942;28;27434;-73
2021/06/09 10:17:55;;;;;;;10.32;9.27;;;28.60;84.70;;;;;;5085861;28;27355;-73
2021/06/09 10:20:41;;;;;;;10.45;9.45;;;28.70;85.80;;;;;;5100464;27;27518;-73
2021/06/09 10:23:35;;;;;;;14.73;10.27;;;28.80;86.00;;;;;;5082631;28;27389;-73
2021/06/09 10:26:20;;;;;;;10.25;9.30;;;29.00;86.60;;;;;;5085293;28;27352;-73
2021/06/09 10:29:06;;;;;;;11.30;10.30;;;29.00;86.40;;;;;;5086548;28;27878;-73
2021/06/09 10:32:02;;;;;;;10.80;9.80;;;28.90;85.70;;;;;;5085130;28;27596;-74
2021/06/09 10:34:47;;;;;;;10.68;9.68;;;28.90;82.10;;;;;;5086206;28;27395;-75
2021/06/09 10:37:31;;;;;;;10.48;9.43;;;29.10;81.60;;;;;;5086469;28;27371;-74
2021/06/09 10:40:17;;;;;;;11.00;10.00;;;29.00;82.80;;;;;;5085312;28;27406;-72
2021/06/09 10:43:05;;;;;;;11.48;9.25;;;29.00;80.30;;;;;;5067876;28;27396;-74
2021/06/09 10:45:50;;;;;;;11.25;10.25;;;28.90;82.10;;;;;;5085313;28;27470;-75
2021/06/09 10:48:34;;;;;;;11.25;10.20;;;28.90;84.00;;;;;;5085894;28;27420;-75
2021/06/09 10:51:19;;;;;;;11.45;10.30;;;29.00;85.00;;;;;;5067968;28;27485;-74
2021/06/09 10:54:10;;;;;;;10.90;9.52;;;29.00;87.10;;;;;;5085099;28;27425;-75
2021/06/09 10:56:55;;;;;;;12.27;8.98;;;29.20;90.10;;;;;;5081561;28;27414;-75
2021/06/09 10:59:40;;;;;;;10.85;9.85;;;29.40;90.20;;;;;;5086408;28;27312;-75
2021/06/09 11:02:24;;;;;;;11.48;10.38;;;29.40;88.60;;;;;;5085896;28;27965;-74
2021/06/09 11:05:11;;;;;;;11.45;10.35;;;29.20;86.00;;;;;;5085177;28;27445;-74
2021/06/09 11:07:55;;;;;;;10.75;9.60;;;29.00;83.30;;;;;;5084876;28;27345;-73
2021/06/09 11:10:42;;;;;;;10.73;9.73;;;28.60;82.10;;;;;;5067282;28;27331;-73
2021/06/09 11:13:32;;;;;;;10.07;9.18;;;28.40;81.10;;;;;;5086100;28;27367;-73
2021/06/09 11:16:18;;;;;;;14.65;10.25;;;28.10;81.40;;;;;;5084806;28;27486;-74
2021/06/09 11:19:02;;;;;;;11.18;9.60;;;27.80;81.50;;;;;;5085515;28;27498;-72
2021/06/09 11:21:47;;;;;;;11.27;10.18;;;27.50;80.40;;;;;;5084244;28;27590;-72
2021/06/09 11:24:32;;;;;;;11.48;9.75;;;27.40;81.30;;;;;;5067401;28;27834;-72
2021/06/09 11:27:36;;;;;;;10.88;9.77;;;27.20;81.80;;;;;;5084864;28;27545;-72
2021/06/09 11:30:23;;;;;;;9.93;8.98;;;27.00;82.10;;;;;;5084570;28;27453;-72
2021/06/09 11:33:10;;;;;;;12.52;10.32;;;26.80;82.70;;;;;;5085509;28;27453;-71
2021/06/09 11:35:58;;;;;;;10.88;9.88;;;26.70;83.20;;;;;;5085215;28;27896;-70
2021/06/09 11:38:45;;;;;;;11.85;10.77;;;26.60;83.80;;;;;;5084613;28;27399;-71
2021/06/09 11:41:40;;;;;;;11.50;10.25;;;26.50;85.00;;;;;;5099160;27;27462;-71
2021/06/09 11:44:29;;;;;;;12.05;10.75;;;26.40;84.50;;;;;;5084364;28;27420;-71
2021/06/09 11:47:28;;;;;;;10.57;9.50;;;26.30;85.80;;;;;;5085276;28;27407;-71
2021/06/09 11:50:29;;;;;;;12.20;10.43;;;26.20;85.00;;;;;;5083405;28;27399;-71
2021/06/09 11:53:20;;;;;;;11.25;10.15;;;26.20;86.20;;;;;;5084513;28;27395;-71
2021/06/09 11:56:28;;;;;;;10.48;9.38;;;26.10;86.30;;;;;;5097990;27;27458;-71
2021/06/09 11:59:26;;;;;;;11.85;9.52;;;26.00;84.80;;;;;;5084026;28;27494;-71
2021/06/09 12:02:18;;;;;;;10.13;8.90;;;25.90;84.30;;;;;;5070060;28;27340;-71
2021/06/09 12:05:05;;;;;;;10.27;9.27;;;25.90;83.60;;;;;;5084787;28;27486;-71
2021/06/09 12:07:50;;;;;;;14.82;10.27;;;25.80;83.70;;;;;;5080701;28;27337;-76
2021/06/09 12:10:35;;;;;;;11.70;10.38;;;25.80;84.50;;;;;;5084853;28;27304;-70
2021/06/09 12:13:26;;;;;;;10.63;9.52;;;25.70;84.70;;;;;;5095020;27;27339;-71
2021/06/09 12:16:18;;;;;;;13.93;10.80;;;25.70;85.30;;;;;;5083911;28;27481;-72
2021/06/09 12:19:02;;;;;;;11.52;10.38;;;25.60;85.40;;;;;;5084506;28;27359;-70
2021/06/09 12:21:48;;;;;;;12.07;10.88;;;25.60;85.70;;;;;;5066444;28;27322;-70
2021/06/09 12:24:33;;;;;;;12.57;11.27;;;25.50;85.80;;;;;;5066292;28;27380;-70
2021/06/09 12:27:18;;;;;;;13.32;12.02;;;25.50;86.00;;;;;;5084927;28;27331;-70
2021/06/09 12:30:08;;;;;;;13.65;11.55;;;25.50;85.30;;;;;;5067133;28;27411;-71
2021/06/09 12:32:53;;;;;;;14.98;13.48;;;25.40;85.60;;;;;;5080265;28;27478;-71
2021/06/09 12:35:38;;;;;;;14.20;12.80;;;25.30;84.10;;;;;;5084418;28;27402;-70
2021/06/09 12:38:27;;;;;;;13.43;12.13;;;25.30;83.90;;;;;;5083727;28;27486;-70
2021/06/09 12:41:12;;;;;;;13.93;12.38;;;25.30;85.20;;;;;;5083511;28;27393;-70
2021/06/09 12:43:59;;;;;;;14.60;13.00;;;25.20;85.40;;;;;;5084040;28;27371;-75
2021/06/09 12:46:54;;;;;;;14.27;12.88;;;25.20;85.70;;;;;;5083302;28;27431;-69
2021/06/09 12:49:38;;;;;;;17.40;11.98;;;25.10;84.90;;;;;;5083465;28;27356;-69
2021/06/09 12:52:23;;;;;;;13.85;12.35;;;25.10;87.30;;;;;;5084348;28;27437;-69
2021/06/09 12:55:19;;;;;;;15.68;14.13;;;25.10;87.20;;;;;;5097591;27;27462;-70
2021/06/09 12:58:08;;;;;;;15.30;11.90;;;25.00;86.20;;;;;;5083566;28;27506;-69
2021/06/09 13:00:54;;;;;;;12.00;10.80;;;25.00;88.70;;;;;;5083612;28;27396;-69
2021/06/09 13:03:44;;;;;;;13.15;11.70;;;25.00;88.90;;;;;;5079930;28;27500;-69
2021/06/09 13:06:30;;;;;;;13.70;12.30;;;24.90;85.20;;;;;;5065973;28;27411;-71
2021/06/09 13:09:19;;;;;;;20.48;13.55;;;24.90;85.90;;;;;;5085757;28;27603;-69
2021/06/09 13:12:04;;;;;;;17.63;12.95;;;24.80;82.30;;;;;;5101214;27;27586;-71
2021/06/09 13:14:49;;;;;;;18.30;13.63;;;24.80;80.70;;;;;;5086955;28;27407;-69
2021/06/09 13:17:33;;;;;;;14.48;12.60;;;24.70;84.30;;;;;;5086772;28;27439;-68
2021/06/09 13:20:19;;;;;;;17.17;12.55;;;24.70;84.90;;;;;;5086478;28;27473;-69
2021/06/09 13:23:08;;;;;;;23.80;14.77;;;24.60;84.00;;;;;;5086597;28;27482;-71
2021/06/09 13:25:52;;;;;;;16.10;13.23;;;24.50;85.70;;;;;;5087446;28;27324;-72
2021/06/09 13:28:37;;;;;;;19.55;12.80;;;24.50;86.40;;;;;;5087424;28;27961;-71
2021/06/09 13:31:30;;;;;;;16.85;14.35;;;24.40;87.10;;;;;;5072022;28;27336;-70
2021/06/09 13:34:22;;;;;;;15.38;13.52;;;24.40;87.00;;;;;;5086449;28;27415;-70
2021/06/09 13:37:07;;;;;;;15.25;13.23;;;24.40;87.00;;;;;;5069653;28;27466;-71
2021/06/09 13:39:54;;;;;;;15.93;13.68;;;24.50;88.80;;;;;;5085155;28;27574;-71
2021/06/09 13:42:40;;;;;;;17.67;13.57;;;24.60;90.20;;;;;;5071937;28;27531;-71
2021/06/09 13:45:28;;;;;;;16.27;13.95;;;24.80;92.00;;;;;;5086276;28;27356;-71
2021/06/09 13:48:13;;;;;;;15.68;14.05;;;25.00;93.10;;;;;;5086885;28;26953;-69
2021/06/09 13:51:01;;;;;;;13.13;11.80;;;25.20;87.00;;;;;;5085966;28;27341;-68
2021/06/09 13:53:56;;;;;;;13.40;11.98;;;25.30;85.00;;;;;;5087077;28;27606;-69
2021/06/09 13:56:45;;;;;;;12.68;11.45;;;25.40;88.50;;;;;;5086358;28;27487;-68
2021/06/09 13:59:35;;;;;;;13.65;11.32;;;25.40;88.90;;;;;;5086287;28;27372;-68
2021/06/09 14:02:32;;;;;;;13.77;11.18;;;25.50;89.60;;;;;;5085976;28;27495;-70
2021/06/09 14:05:23;;;;;;;11.68;10.05;;;25.60;90.00;;;;;;5086635;28;27500;-69
2021/06/09 14:08:11;;;;;;;10.77;9.77;;;25.60;90.10;;;;;;5071677;28;27385;-68
2021/06/09 14:11:04;;;;;;;11.10;10.00;;;25.60;90.20;;;;;;5085784;28;27448;-68
2021/06/09 14:13:52;;;;;;;12.40;9.82;;;25.60;90.30;;;;;;5086135;28;27427;-69
2021/06/09 14:16:45;;;;;;;11.40;10.30;;;25.60;90.50;;;;;;5068438;28;27404;-69
2021/06/09 14:19:34;;;;;;;10.63;9.63;;;25.60;90.70;;;;;;5085609;28;27470;-68